sensor_id;sensor_type;location;lat;lon;timestamp;P1;durP1;ratioP1;P2;durP2;ratioP2
27977;SDS011;15314;49.248;6.968;2022-12-07T00:00:18;19.75;;;17.75;;
27977;SDS011;15314;49.248;6.968;2022-12-07T00:01:38;19.45;;;17.35;;
27977;SDS011;15314;49.248;6.968;2022-12-07T00:02:40;21.08;;;19.00;;
27977;SDS011;15314;49.248;6.968;2022-12-07T00:03:41;19.75;;;17.75;;
27977;SDS011;15314;49.248;6.968;2022-12-07T00:04:43;20.45;;;18.15;;
27977;SDS011;15314;49.248;6.968;2022-12-07T00:05:44;21.60;;;19.02;;
27977;SDS011;15314;49.248;6.968;2022-12-07T00:06:45;22.20;;;19.85;;
27977;SDS011;15314;49.248;6.968;2022-12-07T00:07:49;22.00;;;19.45;;
27977;SDS011;15314;49.248;6.968;2022-12-07T00:08:50;22.00;;;19.75;;
27977;SDS011;15314;49.248;6.968;2022-12-07T00:09:51;20.50;;;18.15;;
27977;SDS011;15314;49.248;6.968;2022-12-07T00:10:51;21.63;;;19.45;;
27977;SDS011;15314;49.248;6.968;2022-12-07T00:11:52;21.50;;;19.23;;
27977;SDS011;15314;49.248;6.968;2022-12-07T00:12:52;20.70;;;18.05;;
27977;SDS011;15314;49.248;6.968;2022-12-07T00:13:54;20.70;;;18.58;;
27977;SDS011;15314;49.248;6.968;2022-12-07T00:14:58;19.98;;;17.92;;
27977;SDS011;15314;49.248;6.968;2022-12-07T00:16:02;19.55;;;17.13;;
27977;SDS011;15314;49.248;6.968;2022-12-07T00:17:05;21.65;;;18.60;;
27977;SDS011;15314;49.248;6.968;2022-12-07T00:18:05;25.02;;;19.88;;
27977;SDS011;15314;49.248;6.968;2022-12-07T00:19:06;20.13;;;17.95;;
27977;SDS011;15314;49.248;6.968;2022-12-07T00:20:09;21.90;;;18.45;;
27977;SDS011;15314;49.248;6.968;2022-12-07T00:21:13;20.40;;;18.23;;
27977;SDS011;15314;49.248;6.968;2022-12-07T00:22:15;20.35;;;18.30;;
27977;SDS011;15314;49.248;6.968;2022-12-07T00:23:16;19.52;;;17.63;;
27977;SDS011;15314;49.248;6.968;2022-12-07T00:24:16;21.30;;;18.25;;
27977;SDS011;15314;49.248;6.968;2022-12-07T00:25:17;21.23;;;17.90;;
27977;SDS011;15314;49.248;6.968;2022-12-07T00:26:19;21.25;;;17.92;;
27977;SDS011;15314;49.248;6.968;2022-12-07T00:27:24;20.17;;;18.05;;
27977;SDS011;15314;49.248;6.968;2022-12-07T00:28:24;20.45;;;18.27;;
27977;SDS011;15314;49.248;6.968;2022-12-07T00:29:25;20.90;;;17.75;;
27977;SDS011;15314;49.248;6.968;2022-12-07T00:30:25;21.30;;;19.10;;
27977;SDS011;15314;49.248;6.968;2022-12-07T00:31:28;21.45;;;18.67;;
27977;SDS011;15314;49.248;6.968;2022-12-07T00:32:30;20.88;;;18.88;;
27977;SDS011;15314;49.248;6.968;2022-12-07T00:33:32;20.15;;;18.15;;
27977;SDS011;15314;49.248;6.968;2022-12-07T00:34:33;18.90;;;17.00;;
27977;SDS011;15314;49.248;6.968;2022-12-07T00:35:34;19.05;;;17.10;;
27977;SDS011;15314;49.248;6.968;2022-12-07T00:36:35;18.80;;;16.92;;
27977;SDS011;15314;49.248;6.968;2022-12-07T00:37:35;19.85;;;17.90;;
27977;SDS011;15314;49.248;6.968;2022-12-07T00:38:37;19.45;;;17.55;;
27977;SDS011;15314;49.248;6.968;2022-12-07T00:39:38;20.17;;;18.23;;
27977;SDS011;15314;49.248;6.968;2022-12-07T00:40:39;19.15;;;17.17;;
27977;SDS011;15314;49.248;6.968;2022-12-07T00:41:39;18.75;;;16.98;;
27977;SDS011;15314;49.248;6.968;2022-12-07T00:42:40;19.50;;;17.58;;
27977;SDS011;15314;49.248;6.968;2022-12-07T00:43:43;20.55;;;18.35;;
27977;SDS011;15314;49.248;6.968;2022-12-07T00:44:44;19.33;;;17.48;;
27977;SDS011;15314;49.248;6.968;2022-12-07T00:45:45;19.13;;;17.23;;
27977;SDS011;15314;49.248;6.968;2022-12-07T00:46:45;19.73;;;17.63;;
27977;SDS011;15314;49.248;6.968;2022-12-07T00:47:46;19.58;;;17.67;;
27977;SDS011;15314;49.248;6.968;2022-12-07T00:48:47;19.80;;;17.70;;
27977;SDS011;15314;49.248;6.968;2022-12-07T00:49:48;18.77;;;16.83;;
27977;SDS011;15314;49.248;6.968;2022-12-07T00:50:49;19.75;;;17.73;;
27977;SDS011;15314;49.248;6.968;2022-12-07T00:51:50;19.10;;;17.17;;
27977;SDS011;15314;49.248;6.968;2022-12-07T00:52:50;17.65;;;16.08;;
27977;SDS011;15314;49.248;6.968;2022-12-07T00:53:51;18.65;;;16.85;;
27977;SDS011;15314;49.248;6.968;2022-12-07T00:54:52;19.05;;;17.23;;
27977;SDS011;15314;49.248;6.968;2022-12-07T00:55:52;18.92;;;17.23;;
27977;SDS011;15314;49.248;6.968;2022-12-07T00:56:53;19.08;;;17.38;;
27977;SDS011;15314;49.248;6.968;2022-12-07T00:57:54;19.38;;;17.48;;
27977;SDS011;15314;49.248;6.968;2022-12-07T00:59:55;18.38;;;16.65;;
27977;SDS011;15314;49.248;6.968;2022-12-07T01:00:59;21.00;;;16.48;;
27977;SDS011;15314;49.248;6.968;2022-12-07T01:02:01;17.15;;;15.45;;
27977;SDS011;15314;49.248;6.968;2022-12-07T01:03:02;17.95;;;15.88;;
27977;SDS011;15314;49.248;6.968;2022-12-07T01:04:04;18.90;;;17.10;;
27977;SDS011;15314;49.248;6.968;2022-12-07T01:05:05;19.90;;;17.80;;
27977;SDS011;15314;49.248;6.968;2022-12-07T01:06:06;19.13;;;17.30;;
27977;SDS011;15314;49.248;6.968;2022-12-07T01:07:06;22.40;;;18.40;;
27977;SDS011;15314;49.248;6.968;2022-12-07T01:08:07;22.08;;;17.15;;
27977;SDS011;15314;49.248;6.968;2022-12-07T01:09:08;19.90;;;17.85;;
27977;SDS011;15314;49.248;6.968;2022-12-07T01:10:09;18.45;;;16.58;;
27977;SDS011;15314;49.248;6.968;2022-12-07T01:11:12;18.98;;;16.98;;
27977;SDS011;15314;49.248;6.968;2022-12-07T01:12:14;19.20;;;17.33;;
27977;SDS011;15314;49.248;6.968;2022-12-07T01:13:15;18.50;;;16.67;;
27977;SDS011;15314;49.248;6.968;2022-12-07T01:14:16;18.33;;;16.48;;
27977;SDS011;15314;49.248;6.968;2022-12-07T01:15:16;17.23;;;15.70;;
27977;SDS011;15314;49.248;6.968;2022-12-07T01:16:17;18.60;;;16.88;;
27977;SDS011;15314;49.248;6.968;2022-12-07T01:17:18;18.83;;;16.83;;
27977;SDS011;15314;49.248;6.968;2022-12-07T01:18:19;18.88;;;17.17;;
27977;SDS011;15314;49.248;6.968;2022-12-07T01:19:19;17.50;;;15.85;;
27977;SDS011;15314;49.248;6.968;2022-12-07T01:20:20;17.70;;;16.05;;
27977;SDS011;15314;49.248;6.968;2022-12-07T01:21:22;16.77;;;15.27;;
27977;SDS011;15314;49.248;6.968;2022-12-07T01:22:24;18.08;;;16.23;;
27977;SDS011;15314;49.248;6.968;2022-12-07T01:23:24;18.30;;;16.63;;
27977;SDS011;15314;49.248;6.968;2022-12-07T01:24:25;18.05;;;16.20;;
27977;SDS011;15314;49.248;6.968;2022-12-07T01:25:26;17.40;;;15.80;;
27977;SDS011;15314;49.248;6.968;2022-12-07T01:26:26;18.67;;;16.77;;
27977;SDS011;15314;49.248;6.968;2022-12-07T01:27:27;20.42;;;18.42;;
27977;SDS011;15314;49.248;6.968;2022-12-07T01:28:28;19.60;;;17.70;;
27977;SDS011;15314;49.248;6.968;2022-12-07T01:29:28;20.45;;;18.30;;
27977;SDS011;15314;49.248;6.968;2022-12-07T01:30:29;17.77;;;16.13;;
27977;SDS011;15314;49.248;6.968;2022-12-07T01:31:30;18.42;;;16.52;;
27977;SDS011;15314;49.248;6.968;2022-12-07T01:32:31;18.42;;;16.60;;
27977;SDS011;15314;49.248;6.968;2022-12-07T01:33:32;18.25;;;16.42;;
27977;SDS011;15314;49.248;6.968;2022-12-07T01:34:35;18.23;;;16.52;;
27977;SDS011;15314;49.248;6.968;2022-12-07T01:35:35;19.02;;;17.17;;
27977;SDS011;15314;49.248;6.968;2022-12-07T01:36:36;19.42;;;17.55;;
27977;SDS011;15314;49.248;6.968;2022-12-07T01:37:37;18.83;;;16.88;;
27977;SDS011;15314;49.248;6.968;2022-12-07T01:38:38;19.85;;;17.88;;
27977;SDS011;15314;49.248;6.968;2022-12-07T01:39:39;18.20;;;16.48;;
27977;SDS011;15314;49.248;6.968;2022-12-07T01:40:41;18.25;;;16.55;;
27977;SDS011;15314;49.248;6.968;2022-12-07T01:41:42;17.90;;;16.10;;
27977;SDS011;15314;49.248;6.968;2022-12-07T01:42:43;19.05;;;17.27;;
27977;SDS011;15314;49.248;6.968;2022-12-07T01:46:18;19.05;;;17.08;;
27977;SDS011;15314;49.248;6.968;2022-12-07T01:47:19;18.65;;;16.88;;
27977;SDS011;15314;49.248;6.968;2022-12-07T01:48:21;19.58;;;17.50;;
27977;SDS011;15314;49.248;6.968;2022-12-07T01:49:42;20.55;;;18.00;;
27977;SDS011;15314;49.248;6.968;2022-12-07T01:50:47;18.70;;;16.90;;
27977;SDS011;15314;49.248;6.968;2022-12-07T01:51:50;18.75;;;16.85;;
27977;SDS011;15314;49.248;6.968;2022-12-07T01:52:55;18.70;;;16.75;;
27977;SDS011;15314;49.248;6.968;2022-12-07T01:53:58;19.23;;;17.25;;
27977;SDS011;15314;49.248;6.968;2022-12-07T01:55:00;18.00;;;16.17;;
27977;SDS011;15314;49.248;6.968;2022-12-07T01:56:04;17.33;;;15.60;;
27977;SDS011;15314;49.248;6.968;2022-12-07T01:57:07;19.40;;;17.38;;
27977;SDS011;15314;49.248;6.968;2022-12-07T01:58:09;19.52;;;17.45;;
27977;SDS011;15314;49.248;6.968;2022-12-07T01:59:11;18.90;;;17.10;;
27977;SDS011;15314;49.248;6.968;2022-12-07T02:00:11;18.25;;;16.48;;
27977;SDS011;15314;49.248;6.968;2022-12-07T02:03:39;19.92;;;17.77;;
27977;SDS011;15314;49.248;6.968;2022-12-07T02:04:41;21.60;;;17.67;;
27977;SDS011;15314;49.248;6.968;2022-12-07T02:05:43;18.77;;;16.80;;
27977;SDS011;15314;49.248;6.968;2022-12-07T02:06:43;19.08;;;17.15;;
27977;SDS011;15314;49.248;6.968;2022-12-07T02:07:46;19.88;;;17.85;;
27977;SDS011;15314;49.248;6.968;2022-12-07T02:08:47;19.42;;;17.42;;
27977;SDS011;15314;49.248;6.968;2022-12-07T02:09:49;19.30;;;17.33;;
27977;SDS011;15314;49.248;6.968;2022-12-07T02:10:49;19.63;;;17.50;;
27977;SDS011;15314;49.248;6.968;2022-12-07T02:11:50;19.10;;;17.15;;
27977;SDS011;15314;49.248;6.968;2022-12-07T02:12:54;18.92;;;17.13;;
27977;SDS011;15314;49.248;6.968;2022-12-07T02:14:08;18.80;;;17.08;;
27977;SDS011;15314;49.248;6.968;2022-12-07T02:15:08;19.63;;;17.30;;
27977;SDS011;15314;49.248;6.968;2022-12-07T02:16:13;20.42;;;16.52;;
27977;SDS011;15314;49.248;6.968;2022-12-07T02:20:33;20.10;;;17.92;;
27977;SDS011;15314;49.248;6.968;2022-12-07T02:21:47;18.33;;;16.42;;
27977;SDS011;15314;49.248;6.968;2022-12-07T02:23:10;19.23;;;17.42;;
27977;SDS011;15314;49.248;6.968;2022-12-07T02:24:45;20.13;;;18.13;;
27977;SDS011;15314;49.248;6.968;2022-12-07T02:29:22;18.67;;;16.88;;
27977;SDS011;15314;49.248;6.968;2022-12-07T02:31:21;18.52;;;16.63;;
27977;SDS011;15314;49.248;6.968;2022-12-07T02:32:32;19.00;;;17.05;;
27977;SDS011;15314;49.248;6.968;2022-12-07T02:33:46;20.48;;;18.38;;
27977;SDS011;15314;49.248;6.968;2022-12-07T02:34:58;20.23;;;18.20;;
27977;SDS011;15314;49.248;6.968;2022-12-07T02:36:07;20.25;;;17.05;;
27977;SDS011;15314;49.248;6.968;2022-12-07T02:37:18;20.92;;;17.30;;
27977;SDS011;15314;49.248;6.968;2022-12-07T02:38:43;19.25;;;17.45;;
27977;SDS011;15314;49.248;6.968;2022-12-07T02:39:48;18.52;;;16.52;;
27977;SDS011;15314;49.248;6.968;2022-12-07T02:41:02;20.02;;;18.15;;
27977;SDS011;15314;49.248;6.968;2022-12-07T02:42:07;21.05;;;18.08;;
27977;SDS011;15314;49.248;6.968;2022-12-07T02:43:14;19.92;;;17.90;;
27977;SDS011;15314;49.248;6.968;2022-12-07T02:44:20;18.70;;;16.90;;
27977;SDS011;15314;49.248;6.968;2022-12-07T02:45:25;20.33;;;18.27;;
27977;SDS011;15314;49.248;6.968;2022-12-07T02:46:33;18.92;;;17.13;;
27977;SDS011;15314;49.248;6.968;2022-12-07T02:47:38;19.15;;;17.15;;
27977;SDS011;15314;49.248;6.968;2022-12-07T02:48:39;21.17;;;19.08;;
27977;SDS011;15314;49.248;6.968;2022-12-07T02:49:42;20.13;;;18.05;;
27977;SDS011;15314;49.248;6.968;2022-12-07T02:50:44;19.80;;;17.80;;
27977;SDS011;15314;49.248;6.968;2022-12-07T02:51:48;19.17;;;17.23;;
27977;SDS011;15314;49.248;6.968;2022-12-07T02:52:48;20.67;;;18.55;;
27977;SDS011;15314;49.248;6.968;2022-12-07T02:53:49;21.95;;;19.73;;
27977;SDS011;15314;49.248;6.968;2022-12-07T02:54:50;20.20;;;18.25;;
27977;SDS011;15314;49.248;6.968;2022-12-07T02:55:50;20.67;;;18.63;;
27977;SDS011;15314;49.248;6.968;2022-12-07T03:00:51;20.10;;;18.00;;
27977;SDS011;15314;49.248;6.968;2022-12-07T03:03:13;22.55;;;19.55;;
27977;SDS011;15314;49.248;6.968;2022-12-07T03:05:41;23.38;;;19.42;;
27977;SDS011;15314;49.248;6.968;2022-12-07T03:06:50;22.52;;;20.05;;
27977;SDS011;15314;49.248;6.968;2022-12-07T03:09:32;21.50;;;19.38;;
27977;SDS011;15314;49.248;6.968;2022-12-07T03:12:08;20.52;;;18.38;;
27977;SDS011;15314;49.248;6.968;2022-12-07T03:14:30;20.67;;;18.45;;
27977;SDS011;15314;49.248;6.968;2022-12-07T03:15:43;19.65;;;17.60;;
27977;SDS011;15314;49.248;6.968;2022-12-07T03:16:58;19.17;;;17.13;;
27977;SDS011;15314;49.248;6.968;2022-12-07T03:18:06;20.23;;;17.98;;
27977;SDS011;15314;49.248;6.968;2022-12-07T03:19:15;19.63;;;17.60;;
27977;SDS011;15314;49.248;6.968;2022-12-07T03:20:18;18.90;;;16.85;;
27977;SDS011;15314;49.248;6.968;2022-12-07T03:21:30;17.67;;;16.08;;
27977;SDS011;15314;49.248;6.968;2022-12-07T03:22:34;18.35;;;16.40;;
27977;SDS011;15314;49.248;6.968;2022-12-07T03:23:37;18.52;;;16.65;;
27977;SDS011;15314;49.248;6.968;2022-12-07T03:24:45;21.00;;;18.08;;
27977;SDS011;15314;49.248;6.968;2022-12-07T03:25:50;18.80;;;16.88;;
27977;SDS011;15314;49.248;6.968;2022-12-07T03:27:01;19.35;;;17.45;;
27977;SDS011;15314;49.248;6.968;2022-12-07T03:28:05;18.90;;;17.08;;
27977;SDS011;15314;49.248;6.968;2022-12-07T03:29:08;19.88;;;17.92;;
27977;SDS011;15314;49.248;6.968;2022-12-07T03:30:19;20.35;;;18.25;;
27977;SDS011;15314;49.248;6.968;2022-12-07T03:31:24;18.90;;;16.90;;
27977;SDS011;15314;49.248;6.968;2022-12-07T03:32:30;19.60;;;17.63;;
27977;SDS011;15314;49.248;6.968;2022-12-07T03:34:57;18.60;;;16.38;;
27977;SDS011;15314;49.248;6.968;2022-12-07T03:36:17;18.50;;;16.60;;
27977;SDS011;15314;49.248;6.968;2022-12-07T03:37:33;18.67;;;16.77;;
27977;SDS011;15314;49.248;6.968;2022-12-07T03:38:37;19.00;;;17.20;;
27977;SDS011;15314;49.248;6.968;2022-12-07T03:39:47;20.00;;;16.50;;
27977;SDS011;15314;49.248;6.968;2022-12-07T03:41:26;17.45;;;15.60;;
27977;SDS011;15314;49.248;6.968;2022-12-07T03:42:29;17.90;;;16.08;;
27977;SDS011;15314;49.248;6.968;2022-12-07T03:43:32;19.38;;;17.27;;
27977;SDS011;15314;49.248;6.968;2022-12-07T03:44:33;20.00;;;17.33;;
27977;SDS011;15314;49.248;6.968;2022-12-07T03:45:40;17.85;;;16.05;;
27977;SDS011;15314;49.248;6.968;2022-12-07T03:47:54;18.25;;;16.33;;
27977;SDS011;15314;49.248;6.968;2022-12-07T03:50:34;18.30;;;16.00;;
27977;SDS011;15314;49.248;6.968;2022-12-07T03:51:48;20.75;;;17.88;;
27977;SDS011;15314;49.248;6.968;2022-12-07T03:52:58;19.40;;;16.50;;
27977;SDS011;15314;49.248;6.968;2022-12-07T03:54:23;23.85;;;19.80;;
27977;SDS011;15314;49.248;6.968;2022-12-07T03:55:29;21.20;;;18.13;;
27977;SDS011;15314;49.248;6.968;2022-12-07T03:56:33;20.20;;;16.95;;
27977;SDS011;15314;49.248;6.968;2022-12-07T03:57:35;18.83;;;16.58;;
27977;SDS011;15314;49.248;6.968;2022-12-07T03:58:37;21.60;;;17.45;;
27977;SDS011;15314;49.248;6.968;2022-12-07T03:59:39;18.90;;;17.10;;
27977;SDS011;15314;49.248;6.968;2022-12-07T04:00:42;20.27;;;18.02;;
27977;SDS011;15314;49.248;6.968;2022-12-07T04:01:51;20.95;;;17.85;;
27977;SDS011;15314;49.248;6.968;2022-12-07T04:04:56;19.55;;;17.48;;
27977;SDS011;15314;49.248;6.968;2022-12-07T04:05:56;20.48;;;18.27;;
27977;SDS011;15314;49.248;6.968;2022-12-07T04:06:58;19.10;;;17.02;;
27977;SDS011;15314;49.248;6.968;2022-12-07T04:07:59;21.88;;;18.25;;
27977;SDS011;15314;49.248;6.968;2022-12-07T04:09:00;20.80;;;17.92;;
27977;SDS011;15314;49.248;6.968;2022-12-07T04:10:01;20.95;;;17.02;;
27977;SDS011;15314;49.248;6.968;2022-12-07T04:11:02;19.88;;;17.42;;
27977;SDS011;15314;49.248;6.968;2022-12-07T04:12:03;22.35;;;18.88;;
27977;SDS011;15314;49.248;6.968;2022-12-07T04:13:04;21.05;;;17.02;;
27977;SDS011;15314;49.248;6.968;2022-12-07T04:14:04;19.85;;;17.15;;
27977;SDS011;15314;49.248;6.968;2022-12-07T04:15:20;19.13;;;16.77;;
27977;SDS011;15314;49.248;6.968;2022-12-07T04:16:21;21.33;;;18.10;;
27977;SDS011;15314;49.248;6.968;2022-12-07T04:17:21;23.40;;;17.60;;
27977;SDS011;15314;49.248;6.968;2022-12-07T04:18:22;23.25;;;18.35;;
27977;SDS011;15314;49.248;6.968;2022-12-07T04:19:24;22.80;;;18.75;;
27977;SDS011;15314;49.248;6.968;2022-12-07T04:20:29;19.48;;;16.48;;
27977;SDS011;15314;49.248;6.968;2022-12-07T04:21:30;21.10;;;18.58;;
27977;SDS011;15314;49.248;6.968;2022-12-07T04:22:31;20.73;;;17.90;;
27977;SDS011;15314;49.248;6.968;2022-12-07T04:23:31;24.60;;;18.55;;
27977;SDS011;15314;49.248;6.968;2022-12-07T04:24:32;20.77;;;18.08;;
27977;SDS011;15314;49.248;6.968;2022-12-07T04:25:34;22.08;;;17.63;;
27977;SDS011;15314;49.248;6.968;2022-12-07T04:26:34;25.02;;;17.25;;
27977;SDS011;15314;49.248;6.968;2022-12-07T04:27:35;19.52;;;17.42;;
27977;SDS011;15314;49.248;6.968;2022-12-07T04:28:36;21.95;;;18.35;;
27977;SDS011;15314;49.248;6.968;2022-12-07T04:29:36;22.48;;;18.42;;
27977;SDS011;15314;49.248;6.968;2022-12-07T04:30:37;18.83;;;16.83;;
27977;SDS011;15314;49.248;6.968;2022-12-07T04:31:38;19.17;;;17.15;;
27977;SDS011;15314;49.248;6.968;2022-12-07T04:32:38;19.92;;;17.83;;
27977;SDS011;15314;49.248;6.968;2022-12-07T04:33:39;22.52;;;17.58;;
27977;SDS011;15314;49.248;6.968;2022-12-07T04:34:40;18.80;;;16.83;;
27977;SDS011;15314;49.248;6.968;2022-12-07T04:35:42;19.63;;;16.42;;
27977;SDS011;15314;49.248;6.968;2022-12-07T04:36:43;19.73;;;17.58;;
27977;SDS011;15314;49.248;6.968;2022-12-07T04:37:44;20.23;;;17.15;;
27977;SDS011;15314;49.248;6.968;2022-12-07T04:38:45;20.13;;;17.92;;
27977;SDS011;15314;49.248;6.968;2022-12-07T04:39:46;19.45;;;17.30;;
27977;SDS011;15314;49.248;6.968;2022-12-07T04:40:47;19.95;;;17.23;;
27977;SDS011;15314;49.248;6.968;2022-12-07T04:41:47;18.85;;;16.90;;
27977;SDS011;15314;49.248;6.968;2022-12-07T04:42:48;21.00;;;17.50;;
27977;SDS011;15314;49.248;6.968;2022-12-07T04:43:49;18.17;;;16.30;;
27977;SDS011;15314;49.248;6.968;2022-12-07T04:44:49;20.45;;;16.65;;
27977;SDS011;15314;49.248;6.968;2022-12-07T04:45:51;18.35;;;16.45;;
27977;SDS011;15314;49.248;6.968;2022-12-07T04:46:51;18.92;;;16.92;;
27977;SDS011;15314;49.248;6.968;2022-12-07T04:47:52;20.27;;;17.52;;
27977;SDS011;15314;49.248;6.968;2022-12-07T04:48:53;19.08;;;16.90;;
27977;SDS011;15314;49.248;6.968;2022-12-07T04:49:55;18.33;;;16.23;;
27977;SDS011;15314;49.248;6.968;2022-12-07T04:50:55;18.00;;;16.10;;
27977;SDS011;15314;49.248;6.968;2022-12-07T04:51:56;18.73;;;16.52;;
27977;SDS011;15314;49.248;6.968;2022-12-07T04:52:57;20.10;;;18.10;;
27977;SDS011;15314;49.248;6.968;2022-12-07T04:53:57;20.13;;;18.05;;
27977;SDS011;15314;49.248;6.968;2022-12-07T04:54:58;19.05;;;17.10;;
27977;SDS011;15314;49.248;6.968;2022-12-07T04:55:59;20.25;;;16.63;;
27977;SDS011;15314;49.248;6.968;2022-12-07T04:57:01;19.27;;;16.63;;
27977;SDS011;15314;49.248;6.968;2022-12-07T04:58:01;20.50;;;17.30;;
27977;SDS011;15314;49.248;6.968;2022-12-07T04:59:02;20.08;;;17.83;;
27977;SDS011;15314;49.248;6.968;2022-12-07T05:00:04;20.45;;;18.27;;
27977;SDS011;15314;49.248;6.968;2022-12-07T05:01:06;18.70;;;16.80;;
27977;SDS011;15314;49.248;6.968;2022-12-07T05:02:06;19.98;;;17.88;;
27977;SDS011;15314;49.248;6.968;2022-12-07T05:03:07;20.50;;;17.60;;
27977;SDS011;15314;49.248;6.968;2022-12-07T05:04:08;20.67;;;18.50;;
27977;SDS011;15314;49.248;6.968;2022-12-07T05:05:09;21.00;;;17.45;;
27977;SDS011;15314;49.248;6.968;2022-12-07T05:06:10;21.02;;;18.83;;
27977;SDS011;15314;49.248;6.968;2022-12-07T05:07:11;21.77;;;18.73;;
27977;SDS011;15314;49.248;6.968;2022-12-07T05:08:12;24.00;;;19.13;;
27977;SDS011;15314;49.248;6.968;2022-12-07T05:09:12;19.10;;;16.77;;
27977;SDS011;15314;49.248;6.968;2022-12-07T05:10:13;21.38;;;18.90;;
27977;SDS011;15314;49.248;6.968;2022-12-07T05:11:14;21.02;;;18.08;;
27977;SDS011;15314;49.248;6.968;2022-12-07T05:14:36;21.57;;;18.80;;
27977;SDS011;15314;49.248;6.968;2022-12-07T05:15:36;21.98;;;19.60;;
27977;SDS011;15314;49.248;6.968;2022-12-07T05:16:37;23.38;;;20.52;;
27977;SDS011;15314;49.248;6.968;2022-12-07T05:17:39;23.02;;;18.77;;
27977;SDS011;15314;49.248;6.968;2022-12-07T05:18:40;21.48;;;19.17;;
27977;SDS011;15314;49.248;6.968;2022-12-07T05:19:40;21.33;;;19.13;;
27977;SDS011;15314;49.248;6.968;2022-12-07T05:20:41;20.63;;;18.52;;
27977;SDS011;15314;49.248;6.968;2022-12-07T05:21:42;22.23;;;19.60;;
27977;SDS011;15314;49.248;6.968;2022-12-07T05:22:43;19.40;;;17.50;;
27977;SDS011;15314;49.248;6.968;2022-12-07T05:23:44;21.60;;;19.30;;
27977;SDS011;15314;49.248;6.968;2022-12-07T05:24:44;20.98;;;18.55;;
27977;SDS011;15314;49.248;6.968;2022-12-07T05:25:45;23.48;;;18.70;;
27977;SDS011;15314;49.248;6.968;2022-12-07T05:26:46;20.80;;;18.60;;
27977;SDS011;15314;49.248;6.968;2022-12-07T05:27:47;20.00;;;18.02;;
27977;SDS011;15314;49.248;6.968;2022-12-07T05:28:51;20.33;;;18.33;;
27977;SDS011;15314;49.248;6.968;2022-12-07T05:29:52;18.35;;;16.52;;
27977;SDS011;15314;49.248;6.968;2022-12-07T05:30:53;20.67;;;18.48;;
27977;SDS011;15314;49.248;6.968;2022-12-07T05:31:54;21.45;;;17.95;;
27977;SDS011;15314;49.248;6.968;2022-12-07T05:32:54;21.75;;;18.23;;
27977;SDS011;15314;49.248;6.968;2022-12-07T05:33:55;20.85;;;17.92;;
27977;SDS011;15314;49.248;6.968;2022-12-07T05:34:56;20.00;;;17.98;;
27977;SDS011;15314;49.248;6.968;2022-12-07T05:35:56;19.50;;;17.50;;
27977;SDS011;15314;49.248;6.968;2022-12-07T05:36:57;19.75;;;17.75;;
27977;SDS011;15314;49.248;6.968;2022-12-07T05:37:57;20.33;;;17.10;;
27977;SDS011;15314;49.248;6.968;2022-12-07T05:38:58;19.95;;;17.60;;
27977;SDS011;15314;49.248;6.968;2022-12-07T05:39:59;21.27;;;18.40;;
27977;SDS011;15314;49.248;6.968;2022-12-07T05:41:00;20.27;;;17.40;;
27977;SDS011;15314;49.248;6.968;2022-12-07T05:42:05;20.65;;;18.48;;
27977;SDS011;15314;49.248;6.968;2022-12-07T05:43:14;21.02;;;17.95;;
27977;SDS011;15314;49.248;6.968;2022-12-07T05:44:15;21.15;;;18.92;;
27977;SDS011;15314;49.248;6.968;2022-12-07T05:45:15;21.08;;;18.13;;
27977;SDS011;15314;49.248;6.968;2022-12-07T05:46:16;20.80;;;18.60;;
27977;SDS011;15314;49.248;6.968;2022-12-07T05:47:17;23.27;;;19.67;;
27977;SDS011;15314;49.248;6.968;2022-12-07T05:48:18;20.40;;;18.05;;
27977;SDS011;15314;49.248;6.968;2022-12-07T05:49:18;26.48;;;19.75;;
27977;SDS011;15314;49.248;6.968;2022-12-07T05:50:19;22.75;;;18.80;;
27977;SDS011;15314;49.248;6.968;2022-12-07T05:51:20;22.65;;;19.83;;
27977;SDS011;15314;49.248;6.968;2022-12-07T05:52:21;21.48;;;19.08;;
27977;SDS011;15314;49.248;6.968;2022-12-07T05:53:22;22.73;;;20.23;;
27977;SDS011;15314;49.248;6.968;2022-12-07T05:54:22;25.80;;;20.50;;
27977;SDS011;15314;49.248;6.968;2022-12-07T05:55:23;22.80;;;20.33;;
27977;SDS011;15314;49.248;6.968;2022-12-07T05:56:24;23.92;;;20.05;;
27977;SDS011;15314;49.248;6.968;2022-12-07T05:57:26;23.85;;;20.02;;
27977;SDS011;15314;49.248;6.968;2022-12-07T05:58:27;24.85;;;21.05;;
27977;SDS011;15314;49.248;6.968;2022-12-07T05:59:46;27.55;;;21.20;;
27977;SDS011;15314;49.248;6.968;2022-12-07T06:00:47;24.23;;;20.88;;
27977;SDS011;15314;49.248;6.968;2022-12-07T06:01:54;25.27;;;21.08;;
27977;SDS011;15314;49.248;6.968;2022-12-07T06:02:57;26.02;;;21.50;;
27977;SDS011;15314;49.248;6.968;2022-12-07T06:03:57;27.42;;;21.45;;
27977;SDS011;15314;49.248;6.968;2022-12-07T06:04:58;23.83;;;21.15;;
27977;SDS011;15314;49.248;6.968;2022-12-07T06:05:58;26.38;;;21.27;;
27977;SDS011;15314;49.248;6.968;2022-12-07T06:06:59;25.67;;;21.70;;
27977;SDS011;15314;49.248;6.968;2022-12-07T06:08:00;23.50;;;20.90;;
27977;SDS011;15314;49.248;6.968;2022-12-07T06:09:00;24.05;;;20.23;;
27977;SDS011;15314;49.248;6.968;2022-12-07T06:10:01;21.83;;;19.63;;
27977;SDS011;15314;49.248;6.968;2022-12-07T06:11:02;26.45;;;21.40;;
27977;SDS011;15314;49.248;6.968;2022-12-07T06:12:21;25.77;;;20.85;;
27977;SDS011;15314;49.248;6.968;2022-12-07T06:13:42;24.50;;;21.88;;
27977;SDS011;15314;49.248;6.968;2022-12-07T06:14:43;36.00;;;23.05;;
27977;SDS011;15314;49.248;6.968;2022-12-07T06:15:44;24.70;;;20.73;;
27977;SDS011;15314;49.248;6.968;2022-12-07T06:16:44;25.27;;;22.33;;
27977;SDS011;15314;49.248;6.968;2022-12-07T06:17:45;27.02;;;21.63;;
27977;SDS011;15314;49.248;6.968;2022-12-07T06:18:47;24.90;;;22.30;;
27977;SDS011;15314;49.248;6.968;2022-12-07T06:19:47;25.88;;;21.58;;
27977;SDS011;15314;49.248;6.968;2022-12-07T06:20:48;23.90;;;21.27;;
27977;SDS011;15314;49.248;6.968;2022-12-07T06:21:49;25.58;;;21.13;;
27977;SDS011;15314;49.248;6.968;2022-12-07T06:22:49;24.60;;;21.95;;
27977;SDS011;15314;49.248;6.968;2022-12-07T06:23:50;24.13;;;20.83;;
27977;SDS011;15314;49.248;6.968;2022-12-07T06:24:51;25.75;;;21.70;;
27977;SDS011;15314;49.248;6.968;2022-12-07T06:25:51;25.00;;;22.10;;
27977;SDS011;15314;49.248;6.968;2022-12-07T06:26:52;27.40;;;21.83;;
27977;SDS011;15314;49.248;6.968;2022-12-07T06:27:52;28.50;;;22.27;;
27977;SDS011;15314;49.248;6.968;2022-12-07T06:28:55;28.45;;;23.08;;
27977;SDS011;15314;49.248;6.968;2022-12-07T06:29:55;25.83;;;21.52;;
27977;SDS011;15314;49.248;6.968;2022-12-07T06:30:59;31.08;;;23.88;;
27977;SDS011;15314;49.248;6.968;2022-12-07T06:32:01;28.40;;;22.48;;
27977;SDS011;15314;49.248;6.968;2022-12-07T06:33:02;29.08;;;24.05;;
27977;SDS011;15314;49.248;6.968;2022-12-07T06:34:03;27.55;;;23.08;;
27977;SDS011;15314;49.248;6.968;2022-12-07T06:35:06;27.08;;;23.30;;
27977;SDS011;15314;49.248;6.968;2022-12-07T06:36:07;25.83;;;22.25;;
27977;SDS011;15314;49.248;6.968;2022-12-07T06:37:08;28.00;;;24.23;;
27977;SDS011;15314;49.248;6.968;2022-12-07T06:38:09;30.55;;;25.30;;
27977;SDS011;15314;49.248;6.968;2022-12-07T06:39:10;29.02;;;23.95;;
27977;SDS011;15314;49.248;6.968;2022-12-07T06:40:10;28.17;;;24.23;;
27977;SDS011;15314;49.248;6.968;2022-12-07T06:41:11;32.80;;;25.40;;